首页
METAR-TAF:

METAR-TAF

机场 :

那空是贪玛叻, 泰国

纬度: 8-32-22N, 经度: 99-56-41E, 海拔: 4米

当前天气观测

该预报发布于30分钟前的00:00 UTC
静风
温度 27°C
湿度 94%
气压 1008 hPa
能见度10公里或以上
少量云层高于1800英尺

METAR: VTSF 290000Z 00000KT 9999 FEW018 27/26 Q1008 NOSIG

时间: 07:30 (00:30 UTC)

预报

该预报发布于1小时和30分钟前的23:00 UTC
预报有效从29日的 00点(UTC)到 29日的 24点(UTC)
风速节,风向
能见度10公里或以上
少量云层高于2000英尺
成为
从 29日的 02点(UTC)到 29日的 04点(UTC)
风速8节,风向西南
成为
从 29日的 13点(UTC)到 29日的 15点(UTC)
风速3节,风向西转西北

TAF: VTSF 282300Z 2900/2924 00000KT 9999 FEW020 BECMG 2902/2904 23008KT BECMG 2913/2915 30003KT

超过4000个机场的气象观测和天气预报(METAR&TAF报告)。

可查询的气象台以黄色和红色小点在地图上表示。

将鼠标移到小点上方,可查看气象台名称。

然后点击查看天气观测和预报。

如需切换地图:点击带黑十字的绿色按钮放大地图;点击带横线的绿色按钮缩小地图;或者点击绿色箭头查看邻近地区的地图。


METAR-TAF: